createdAt,value
2018-11-27T01:21:45.177Z,82.10
2018-11-27T01:26:49.775Z,82.90
2018-11-27T01:31:54.453Z,82.40
2018-11-27T01:36:59.084Z,82.10
2018-11-27T01:42:03.793Z,81.90
2018-11-27T01:47:08.429Z,81.30
2018-11-27T01:52:13.116Z,81.30
2018-11-27T01:57:17.727Z,81.10
2018-11-27T02:02:22.373Z,80.00
2018-11-27T02:07:26.967Z,81.10
2018-11-27T02:12:31.571Z,79.80
2018-11-27T02:17:36.202Z,80.00
2018-11-27T02:22:41.062Z,79.60
2018-11-27T02:27:45.691Z,79.70
2018-11-27T02:32:50.368Z,79.50
2018-11-27T02:37:58.028Z,79.20
2018-11-27T02:43:02.664Z,79.80
2018-11-27T02:48:08.037Z,82.10
2018-11-27T02:53:12.741Z,82.70
2018-11-27T02:58:17.453Z,83.20
2018-11-27T03:03:22.168Z,82.80
2018-11-27T03:08:26.815Z,82.90
2018-11-27T03:13:31.448Z,82.10
2018-11-27T03:18:36.084Z,82.50
2018-11-27T03:23:40.732Z,81.80
2018-11-27T03:28:45.353Z,82.00
2018-11-27T03:33:49.977Z,82.30
2018-11-27T03:38:54.575Z,82.50
2018-11-27T03:43:59.157Z,82.40
2018-11-27T03:49:03.800Z,81.90
2018-11-27T03:54:08.366Z,81.50
2018-11-27T03:59:12.953Z,81.90
2018-11-27T04:04:17.569Z,81.10
2018-11-27T04:09:22.224Z,81.10
2018-11-27T04:14:26.795Z,81.20
2018-11-27T04:19:31.420Z,82.20
2018-11-27T04:24:36.076Z,81.20
2018-11-27T04:29:40.634Z,81.60
2018-11-27T04:34:45.209Z,81.80
2018-11-27T04:39:49.895Z,81.90
2018-11-27T04:44:54.542Z,81.70
2018-11-27T04:49:59.108Z,81.60
2018-11-27T04:55:03.720Z,82.00
2018-11-27T05:00:19.502Z,81.90
2018-11-27T05:05:24.094Z,82.10
2018-11-27T05:10:28.674Z,82.10
2018-11-27T05:15:33.286Z,81.30
2018-11-27T05:20:37.862Z,82.20
2018-11-27T05:25:42.500Z,81.60
2018-11-27T05:30:47.082Z,80.80
2018-11-27T05:35:51.728Z,80.90
2018-11-27T05:40:56.301Z,80.20
2018-11-27T05:46:00.927Z,80.50
2018-11-27T05:51:06.586Z,81.90
2018-11-27T05:56:11.259Z,81.50
2018-11-27T06:01:17.598Z,81.70
2018-11-27T06:06:22.285Z,81.00
2018-11-27T06:11:27.475Z,82.40
2018-11-27T06:16:33.919Z,81.80
2018-11-27T06:21:40.068Z,80.40
2018-11-27T06:26:46.284Z,80.00
2018-11-27T06:31:50.857Z,79.40
2018-11-27T06:36:55.424Z,78.80
2018-11-27T06:41:59.980Z,78.30
2018-11-27T06:47:04.556Z,78.50
2018-11-27T06:52:09.126Z,78.00
2018-11-27T06:57:13.741Z,78.20
2018-11-27T07:02:18.351Z,78.50
2018-11-27T07:07:22.935Z,78.30
2018-11-27T07:12:27.487Z,77.60
2018-11-27T07:17:32.056Z,76.80
2018-11-27T10:47:36.755Z,68.70
2018-11-27T10:53:11.824Z,69.90
2018-11-27T10:58:56.471Z,68.90
2018-11-27T11:04:49.662Z,69.10
2018-11-27T11:15:53.805Z,68.80
2018-11-27T11:27:36.628Z,68.50
2018-11-27T17:47:52.873Z,87.00
2018-11-27T17:52:57.455Z,87.30
2018-11-27T17:58:02.330Z,87.90
2018-11-27T18:03:09.431Z,87.90
2018-11-27T18:08:14.036Z,88.00
2018-11-27T18:13:19.167Z,87.60
2018-11-27T18:18:23.934Z,87.40
2018-11-27T18:23:28.887Z,87.80
2018-11-27T18:28:33.365Z,87.90
2018-11-27T18:33:37.861Z,86.90
2018-11-27T18:38:42.493Z,87.40
2018-11-27T18:43:47.156Z,87.90
2018-11-27T18:48:58.663Z,88.50
2018-11-27T18:54:09.180Z,88.20
2018-11-27T18:59:13.846Z,87.90
2018-11-27T19:04:19.152Z,88.10
2018-11-27T19:09:29.355Z,88.20
2018-11-27T19:14:34.849Z,88.30
2018-11-27T19:19:41.554Z,88.60
2018-11-27T19:24:46.413Z,89.00
2018-11-27T19:29:51.470Z,89.20
2018-11-27T19:34:56.297Z,89.60
2018-11-27T19:40:01.044Z,89.50
2018-11-27T19:45:09.401Z,89.70
2018-11-27T19:50:14.696Z,90.10
2018-11-27T19:55:20.294Z,90.30
2018-11-27T20:00:26.250Z,90.00
2018-11-27T20:05:31.257Z,90.20
2018-11-27T20:10:35.816Z,90.00
2018-11-27T20:15:40.479Z,90.10
2018-11-27T20:20:45.289Z,90.20
2018-11-27T20:25:50.180Z,90.20
2018-11-27T20:30:54.944Z,90.20
2018-11-27T20:35:59.665Z,90.20
2018-11-27T20:41:04.416Z,90.20
2018-11-27T20:46:15.144Z,90.20
2018-11-27T20:51:20.075Z,90.20
2018-11-27T20:56:24.809Z,90.20
2018-11-27T21:01:32.405Z,90.00
2018-11-27T21:06:37.085Z,90.20
2018-11-27T21:11:41.924Z,90.00
2018-11-27T21:16:46.517Z,90.00
2018-11-27T21:21:51.230Z,90.30
2018-11-27T21:26:55.817Z,90.20
2018-11-27T21:32:00.516Z,90.10
2018-11-27T21:37:05.707Z,90.20
2018-11-27T21:42:10.220Z,90.20
2018-11-27T21:47:14.829Z,90.00
2018-11-27T21:52:19.426Z,89.70
2018-11-27T21:57:24.046Z,90.10
2018-11-27T22:02:28.599Z,90.20
2018-11-27T22:07:33.221Z,90.20
2018-11-27T22:12:37.813Z,90.10
2018-11-27T22:17:42.441Z,90.20
2018-11-27T22:22:46.984Z,90.10
2018-11-27T22:27:51.595Z,90.00
2018-11-27T22:32:56.617Z,90.00
2018-11-27T22:38:01.195Z,90.20
2018-11-27T22:43:06.954Z,89.90
2018-11-27T22:48:12.387Z,88.90
2018-11-27T22:53:16.962Z,88.60
2018-11-27T22:58:21.579Z,88.60
2018-11-27T23:03:26.135Z,88.40
2018-11-27T23:08:30.751Z,88.90
2018-11-27T23:13:35.331Z,89.90
2018-11-27T23:18:39.883Z,89.80
2018-11-27T23:23:44.487Z,90.00
2018-11-27T23:28:49.074Z,89.70
2018-11-27T23:33:53.716Z,89.30
2018-11-27T23:38:58.282Z,89.20
2018-11-27T23:44:02.963Z,89.30
2018-11-27T23:49:07.560Z,88.80
2018-11-27T23:54:15.427Z,89.40
2018-11-27T23:59:20.135Z,90.00
